Home > Products > Valid Products > TAF

000
FTUS41 KILN 180900 AAA
TAFCVG
TAF AMD
KCVG 180925Z 1809/1912 31005KT P6SM OVC015
     FM181600 30005KT P6SM BKN022 OVC090
     FM181900 28005KT P6SM SCT025 OVC080
     FM190100 30003KT P6SM OVC050=



000
FTUS41 KILN 180500
TAFCVG
TAF
KCVG 180540Z 1806/1912 31005KT P6SM OVC015
     FM181600 30005KT P6SM BKN022 OVC120
     FM181900 28005KT P6SM SCT025 OVC050
     FM190100 30003KT P6SM OVC025=



000
FTUS41 KILN 180500
TAFDAY
TAF
KDAY 180540Z 1806/1906 29006KT P6SM OVC025
     FM181800 29006KT P6SM OVC035
     FM182200 28005KT P6SM SCT035 OVC100
     FM190000 29004KT P6SM OVC025=



000
FTUS41 KILN 180500
TAFILN
TAF
KILN 180540Z 1806/1906 31005KT P6SM OVC014
     FM180800 30005KT P6SM OVC022
     FM182200 29005KT P6SM SCT025 OVC090
     FM190100 29004KT P6SM OVC025=



000
FTUS41 KILN 180500
TAFCMH
TAF
KCMH 180540Z 1806/1906 29008KT P6SM OVC025
     FM182300 28005KT P6SM SCT025 OVC100
     FM190200 29003KT P6SM OVC025=



000
FTUS41 KILN 180500
TAFLCK
TAF
KLCK 180540Z 1806/1906 29007KT P6SM OVC025
     FM182300 28005KT P6SM SCT025 OVC100
     FM190200 29003KT P6SM OVC025=



000
FTUS41 KILN 180500
TAFLUK
TAF
KLUK 180540Z 1806/1906 30005KT P6SM OVC020
     FM181700 30003KT P6SM BKN025 OVC120
     FM182000 29005KT P6SM SCT025 OVC060
     FM190100 00000KT P6SM OVC025=



000
FTUS41 KILN 172300
TAFLCK
TAF
KLCK 172320Z 1800/1824 29008KT P6SM OVC016
     FM181700 28006KT P6SM BKN020=



000
FTUS41 KILN 172300
TAFCVG
TAF
KCVG 172320Z 1800/1906 30005KT P6SM OVC018
     FM181600 30003KT P6SM BKN022
     FM190200 32004KT P6SM SCT025 BKN040=



000
FTUS41 KILN 172300
TAFCMH
TAF
KCMH 172320Z 1800/1824 29008KT P6SM OVC016
     FM181700 28006KT P6SM BKN020=



000
FTUS41 KILN 172300
TAFDAY
TAF
KDAY 172320Z 1800/1824 29008KT P6SM OVC014
     FM181700 28006KT P6SM BKN018=



000
FTUS41 KILN 172300
TAFILN
TAF
KILN 172320Z 1800/1824 29008KT P6SM OVC014
     FM181700 28006KT P6SM BKN018=



000
FTUS41 KILN 172300
TAFLUK
TAF
KLUK 172320Z 1800/1824 30005KT P6SM OVC022
     FM181600 30003KT P6SM BKN025=



000
FTUS41 KILN 172100 AAA
TAFLUK
TAF AMD
KLUK 172101Z 1721/1818 26008KT P6SM OVC022
     FM180000 31006KT P6SM OVC022
     FM181200 VRB03KT P6SM BKN020=



000
FTUS41 KILN 172100 AAA
TAFCVG
TAF AMD
KCVG 172101Z 1721/1824 26008KT P6SM OVC016
     FM180000 31006KT P6SM OVC016
     FM181200 VRB03KT P6SM BKN016
     FM181800 VRB03KT P6SM BKN022=



000
FTUS41 KILN 171700
TAFCMH
TAF
KCMH 171728Z 1718/1818 28012KT P6SM OVC015
     FM180000 29008KT P6SM OVC015
     FM181200 26006KT P6SM BKN018=



000
FTUS41 KILN 171700
TAFLUK
TAF
KLUK 171728Z 1718/1818 27008KT P6SM OVC019
     FM180000 31006KT P6SM OVC019
     FM181200 VRB03KT P6SM BKN020=



000
FTUS41 KILN 171700
TAFILN
TAF
KILN 171728Z 1718/1818 28012KT P6SM OVC013
     FM180000 30008KT P6SM OVC013
     FM181200 26005KT P6SM BKN015=



000
FTUS41 KILN 171700
TAFCVG
TAF
KCVG 171728Z 1718/1824 27008KT P6SM OVC014
     FM180000 31006KT P6SM OVC014
     FM181200 VRB03KT P6SM BKN016
     FM181800 VRB03KT P6SM BKN022=



000
FTUS41 KILN 171700
TAFDAY
TAF
KDAY 171728Z 1718/1818 28012KT P6SM OVC013
     FM180000 30008KT P6SM OVC013
     FM181200 27005KT P6SM BKN015=



000
FTUS41 KILN 171700
TAFLCK
TAF
KLCK 171728Z 1718/1818 28012KT P6SM OVC015
     FM180000 29008KT P6SM OVC015
     FM181200 26006KT P6SM BKN018=



000
FTUS41 KILN 171400 AAA
TAFLUK
TAF AMD
KLUK 171418Z 1714/1812 28010KT P6SM OVC016
     FM180000 31005KT P6SM OVC016=



000
FTUS41 KILN 171400 AAA
TAFCMH
TAF AMD
KCMH 171418Z 1714/1812 28013G20KT P6SM OVC022
     FM171700 28013KT P6SM OVC016
     FM180000 30008KT P6SM OVC016=



000
FTUS41 KILN 171400 AAA
TAFCVG
TAF AMD
KCVG 171418Z 1714/1818 28010KT P6SM OVC012
     FM180000 31006KT P6SM OVC012
     FM181400 28005KT P6SM BKN025=



000
FTUS41 KILN 171400 AAB
TAFILN
TAF AMD
KILN 171418Z 1714/1812 28012KT P6SM OVC014
     FM180000 31008KT P6SM OVC014=



000
FTUS41 KILN 171400 AAA
TAFLCK
TAF AMD
KLCK 171418Z 1714/1812 28013G20KT P6SM OVC022
     FM171700 28013KT P6SM OVC016
     FM180000 30008KT P6SM OVC016=



000
FTUS41 KILN 171400 AAB
TAFDAY
TAF AMD
KDAY 171418Z 1714/1812 28012KT P6SM OVC014
     FM180000 31008KT P6SM OVC014=



000
FTUS41 KILN 171100 AAA
TAFILN
TAF AMD
KILN 171151Z 1712/1812 27013KT P6SM VCSH OVC016
      TEMPO 1712/1714 3SM -SHSN
     FM171500 27014KT P6SM OVC015
     FM180100 28008KT P6SM OVC018=



000
FTUS41 KILN 171100 AAA
TAFDAY
TAF AMD
KDAY 171151Z 1712/1812 27012G20KT P6SM VCSH OVC014
     FM171400 27015KT P6SM OVC015
     FM172300 28009KT P6SM OVC018=



000
FTUS41 KILN 171100
TAFLUK
TAF
KLUK 171129Z 1712/1812 27010KT P6SM VCSH OVC022
      TEMPO 1712/1713 5SM -SHSN BR OVC017
     FM171500 27011KT P6SM OVC019
     FM180000 28004KT P6SM OVC019=



000
FTUS41 KILN 171100
TAFCVG
TAF
KCVG 171129Z 1712/1818 27014KT P6SM VCSH OVC018
     FM171400 27012KT P6SM OVC015
     FM180000 28005KT P6SM OVC015
     FM181400 28005KT P6SM BKN025=



000
FTUS41 KILN 171100
TAFLCK
TAF
KLCK 171129Z 1712/1812 26013G20KT P6SM VCSH OVC014
     FM171600 27012KT P6SM OVC015
     FM172200 28008KT P6SM OVC018=



000
FTUS41 KILN 171100
TAFDAY
TAF
KDAY 171129Z 1712/1812 27012G20KT P6SM VCSH OVC014
     FM171400 27012G18KT P6SM OVC015
     FM172300 28009KT P6SM OVC018=



000
FTUS41 KILN 171100
TAFCMH
TAF
KCMH 171129Z 1712/1812 27013G20KT P6SM VCSH OVC016
     FM171600 27012KT P6SM OVC015
     FM172200 28009KT P6SM OVC018=



000
FTUS41 KILN 171100
TAFILN
TAF
KILN 171129Z 1712/1812 27013KT P6SM VCSH OVC016
      TEMPO 1712/1714 3SM -SHSN
     FM171500 27011G17KT P6SM OVC015
     FM180100 28008KT P6SM OVC018=



000
FTUS41 KILN 171100 AAB
TAFLUK
TAF AMD
KLUK 171107Z 1711/1806 27010KT P6SM VCSH OVC017
      TEMPO 1711/1713 5SM -SN BR OVC022
     FM171400 27010KT P6SM OVC016
     FM180000 28004KT P6SM OVC019=



000
FTUS41 KILN 171100 AAB
TAFCVG
TAF AMD
KCVG 171105Z 1711/1812 27012G20KT P6SM OVC015
     FM180000 28005KT P6SM OVC015=



000
FTUS41 KILN 171000 AAB
TAFILN
TAF AMD
KILN 171041Z 1711/1806 27013KT P6SM VCSH OVC012
     FM171400 27012G18KT P6SM OVC015
     FM172200 27010KT P6SM OVC018=



000
FTUS41 KILN 171000 AAB
TAFDAY
TAF AMD
KDAY 171039Z 1711/1806 27012G20KT P6SM VCSH OVC011
     FM171400 27013G20KT P6SM OVC015
     FM172300 28010KT P6SM OVC018=



000
FTUS41 KILN 170900 AAB
TAFLCK
TAF AMD
KLCK 170924Z 1709/1806 26014G19KT P6SM VCSH OVC014
      TEMPO 1710/1712 3SM BR
     FM171400 27013G20KT P6SM OVC015
     FM172200 27010KT P6SM OVC018=



000
FTUS41 KILN 170900 AAB
TAFLCK
TAF AMD
KLCK 170924Z 1709/1806 26014G19KT P6SM VCSH OVC014
      TEMPO 1710/1712 3SM BR
     FM171400 27013G20KT P6SM OVC015
     FM172200 27010KT P6SM OVC018=



000
FTUS41 KILN 170900 AAA
TAFCMH
TAF AMD
KCMH 170923Z 1709/1806 26014KT P6SM VCSH OVC012
      TEMPO 1710/1712 3SM BR
     FM171400 27013G20KT P6SM OVC015
     FM172200 27010KT P6SM OVC018=



000
FTUS41 KILN 170900 AAA
TAFCMH
TAF AMD
KCMH 170923Z 1709/1806 26014KT P6SM VCSH OVC012
      TEMPO 1710/1712 3SM BR
     FM171400 27013G20KT P6SM OVC015
     FM172200 27010KT P6SM OVC018=



000
FTUS41 KILN 170900 AAA
TAFILN
TAF AMD
KILN 170921Z 1709/1806 26015G22KT P6SM VCSH SCT006 OVC012
      TEMPO 1709/1713 3SM BR OVC007
     FM171400 27012G18KT P6SM OVC015
     FM172200 27010KT P6SM OVC018=



000
FTUS41 KILN 170900 AAA
TAFILN
TAF AMD
KILN 170921Z 1709/1806 26015G22KT P6SM VCSH SCT006 OVC012
      TEMPO 1709/1713 3SM BR OVC007
     FM171400 27012G18KT P6SM OVC015
     FM172200 27010KT P6SM OVC018=



000
FTUS41 KILN 170900 AAA
TAFDAY
TAF AMD
KDAY 170918Z 1709/1806 27012G20KT P6SM VCSH OVC011
      TEMPO 1711/1714 BKN009
     FM171400 27013G20KT P6SM OVC015
     FM172300 28010KT P6SM OVC018=



000
FTUS41 KILN 170900 AAA
TAFDAY
TAF AMD
KDAY 170918Z 1709/1806 27012G20KT P6SM VCSH OVC011
      TEMPO 1711/1714 BKN009
     FM171400 27013G20KT P6SM OVC015
     FM172300 28010KT P6SM OVC018=



000
FTUS41 KILN 170900 AAA
TAFLUK
TAF AMD
KLUK 170915Z 1709/1806 27010KT P6SM VCSH OVC017
     FM171200 27010KT P6SM OVC016
     FM180000 28004KT P6SM OVC019=



000
FTUS41 KILN 170900 AAA
TAFLUK
TAF AMD
KLUK 170915Z 1709/1806 27010KT P6SM VCSH OVC017
     FM171200 27010KT P6SM OVC016
     FM180000 28004KT P6SM OVC019=



000
FTUS41 KILN 170900 AAA
TAFCVG
TAF AMD
KCVG 170913Z 1709/1812 27010KT P6SM VCSH SCT008 OVC011
     FM171100 27010KT P6SM OVC012
     FM180000 28005KT P6SM OVC015=



000
FTUS41 KILN 170900 AAA
TAFCVG
TAF AMD
KCVG 170913Z 1709/1812 27010KT P6SM VCSH SCT008 OVC011
     FM171100 27010KT P6SM OVC012
     FM180000 28005KT P6SM OVC015=



000
FTUS41 KILN 170700 AAA
TAFLCK
TAF AMD
KLCK 170723Z 1707/1806 26014G19KT P6SM VCSH OVC010
     FM171300 27013G20KT P6SM OVC015
     FM172200 27010KT P6SM OVC018=



000
FTUS41 KILN 170700 AAA
TAFLCK
TAF AMD
KLCK 170723Z 1707/1806 26014G19KT P6SM VCSH OVC010
     FM171300 27013G20KT P6SM OVC015
     FM172200 27010KT P6SM OVC018=



000
FTUS41 KILN 170500 RRA
TAFDAY
TAF
KDAY 170543Z 1706/1806 27012G20KT P6SM VCSH OVC015
      TEMPO 1707/1709 BKN007
     FM171100 27013G20KT P6SM OVC015
     FM172300 28010KT P6SM OVC018=



000
FTUS41 KILN 170500 RRA
TAFLCK
TAF
KLCK 170543Z 1706/1806 26014G22KT P6SM VCSH OVC010
     FM171300 27013G20KT P6SM OVC015
     FM172200 27010KT P6SM OVC018=



000
FTUS41 KILN 170500 RRA
TAFLUK
TAF
KLUK 170543Z 1706/1806 27010KT P6SM VCSH OVC017
     FM180000 28004KT P6SM OVC022=



000
FTUS41 KILN 170500 RRA
TAFILN
TAF
KILN 170543Z 1706/1806 26015G22KT P6SM VCSH SCT006 OVC012
     FM171100 27012G18KT P6SM OVC015
     FM172200 27010KT P6SM OVC018=



000
FTUS41 KILN 170500 RRA
TAFCVG
TAF
KCVG 170543Z 1706/1812 27012KT P6SM VCSH SCT008 OVC013
      TEMPO 1707/1710 BKN008
     FM171100 27010KT P6SM OVC015
     FM180000 28005KT P6SM OVC018=



000
FTUS41 KILN 170500 RRA
TAFCMH
TAF
KCMH 170543Z 1706/1806 26014G22KT P6SM VCSH OVC012
     FM171300 27013G20KT P6SM OVC015
     FM172200 27010KT P6SM OVC018=



000
FTUS41 KILN 170300 AAA
TAFDAY
TAF AMD
KDAY 170348Z 1704/1724 27015G23KT P6SM OVC006
     FM171000 27014KT P6SM OVC012
     FM171700 28012KT P6SM OVC022=



000
FTUS41 KILN 170300 AAA
TAFDAY
TAF AMD
KDAY 170348Z 1704/1724 27015G23KT P6SM OVC006
     FM171000 27014KT P6SM OVC012
     FM171700 28012KT P6SM OVC022=



000
FTUS41 KILN 170300 AAA
TAFILN
TAF AMD
KILN 170348Z 1704/1724 26015KT P6SM OVC006
     FM171100 27014KT P6SM OVC012
     FM171700 27011KT P6SM OVC022=



000
FTUS41 KILN 170300 AAA
TAFILN
TAF AMD
KILN 170348Z 1704/1724 26015KT P6SM OVC006
     FM171100 27014KT P6SM OVC012
     FM171700 27011KT P6SM OVC022=



000
FTUS41 KILN 170300 AAA
TAFCVG
TAF AMD
KCVG 170343Z 1704/1806 27012KT P6SM OVC012
      TEMPO 1704/1706 OVC009
     FM171600 27009KT P6SM BKN022
     FM180000 30005KT P6SM OVC018=



000
FTUS41 KILN 170300 AAA
TAFCVG
TAF AMD
KCVG 170343Z 1704/1806 27012KT P6SM OVC012
      TEMPO 1704/1706 OVC009
     FM171600 27009KT P6SM BKN022
     FM180000 30005KT P6SM OVC018=



000
FTUS41 KILN 162300
TAFLUK
TAF
KLUK 162333Z 1700/1724 26010KT P6SM OVC015
     FM171600 27009KT P6SM BKN025=



000
FTUS41 KILN 162300
TAFCMH
TAF
KCMH 162333Z 1700/1724 26014G22KT P6SM OVC012
      TEMPO 1700/1701 5SM -SHRA BR
     FM171300 27014KT P6SM OVC018=



000
FTUS41 KILN 162300
TAFCVG
TAF
KCVG 162333Z 1700/1806 27012KT P6SM OVC012
     FM171600 27009KT P6SM BKN022
     FM180000 30005KT P6SM OVC018=



000
FTUS41 KILN 162300
TAFILN
TAF
KILN 162333Z 1700/1724 25014KT P6SM OVC012
      TEMPO 1701/1704 OVC008
     FM171700 27011KT P6SM OVC022=



000
FTUS41 KILN 162300
TAFLCK
TAF
KLCK 162333Z 1700/1724 26014G22KT P6SM OVC012
      TEMPO 1700/1701 5SM -SHRA BR
     FM171300 26012KT P6SM OVC018=



000
FTUS41 KILN 162300
TAFDAY
TAF
KDAY 162333Z 1700/1724 25015G23KT P6SM OVC012
      TEMPO 1701/1704 OVC008
     FM171100 27014KT P6SM OVC015
     FM171700 28012KT P6SM OVC022=



000
FTUS41 KILN 162200 AAA
TAFILN
TAF AMD
KILN 162210Z 1622/1718 25016G24KT P6SM OVC012
     FM170300 27015KT P6SM OVC006
     FM170700 28012KT P6SM OVC013=



000
FTUS41 KILN 162200 AAB
TAFDAY
TAF AMD
KDAY 162210Z 1622/1718 25016G24KT P6SM OVC012
     FM170100 27016G24KT P6SM OVC006
     FM170600 28012G20KT P6SM OVC013=



000
FTUS41 KILN 162200 AAA
TAFILN
TAF AMD
KILN 162210Z 1622/1718 25016G24KT P6SM OVC012
     FM170300 27015KT P6SM OVC006
     FM170700 28012KT P6SM OVC013=



000
FTUS41 KILN 162200 AAB
TAFDAY
TAF AMD
KDAY 162210Z 1622/1718 25016G24KT P6SM OVC012
     FM170100 27016G24KT P6SM OVC006
     FM170600 28012G20KT P6SM OVC013=



000
FTUS41 KILN 162000 AAB
TAFCVG
TAF AMD
KCVG 162059Z 1621/1724 26014G22KT P6SM OVC012
     FM170000 27012G20KT P6SM OVC007
     FM170600 28010G18KT P6SM OVC014
     FM171800 28010KT P6SM BKN022=



000
FTUS41 KILN 162000 AAA
TAFILN
TAF AMD
KILN 162003Z 1620/1718 25014G24KT P6SM -SHRA SCT006 OVC012
     FM162200 25014G24KT P6SM OVC006
     FM170000 27014G24KT P6SM OVC006
     FM170700 28012G20KT P6SM OVC013=



000
FTUS41 KILN 162000 AAA
TAFLCK
TAF AMD
KLCK 162003Z 1620/1718 25014G24KT 5SM -SHRA BR OVC014
     FM162300 26014G24KT P6SM OVC012
     FM170000 26014G24KT P6SM OVC008
     FM170800 27012G20KT P6SM OVC015=



000
FTUS41 KILN 162000 AAA
TAFCMH
TAF AMD
KCMH 162003Z 1620/1718 25014G24KT 5SM -SHRA BR OVC014
     FM162300 26014G24KT P6SM OVC012
     FM170000 26014G24KT P6SM OVC008
     FM170800 27012G20KT P6SM OVC015=



000
FTUS41 KILN 162000 AAA
TAFCVG
TAF AMD
KCVG 162003Z 1620/1724 26014G24KT P6SM -SHRA SCT007 OVC012
     FM162200 27014G24KT P6SM OVC007
     FM170000 27012G20KT P6SM OVC007
     FM170600 28010G18KT P6SM OVC014
     FM171800 28010KT P6SM BKN022=



000
FTUS41 KILN 162000 AAA
TAFLUK
TAF AMD
KLUK 162003Z 1620/1718 26014G24KT P6SM -SHRA OVC016
     FM162200 27014G24KT P6SM OVC012
     FM170000 27012G20KT P6SM OVC012
     FM170600 28010G18KT P6SM OVC018=



000
FTUS41 KILN 162000 AAA
TAFDAY
TAF AMD
KDAY 162003Z 1620/1718 25014G24KT P6SM -SHRA SCT006 OVC012
     FM162200 25014G24KT P6SM OVC006
     FM170000 27014G24KT P6SM OVC006
     FM170600 28012G20KT P6SM OVC013=



000
FTUS41 KILN 161700
TAFLCK
TAF
KLCK 161731Z 1618/1718 25014G24KT 5SM -SHRA BR OVC014
     FM162200 26014G24KT P6SM OVC012
     FM170000 26014G24KT P6SM OVC008
     FM170800 27012G20KT P6SM OVC015=



000
FTUS41 KILN 161700
TAFCMH
TAF
KCMH 161731Z 1618/1718 25014G24KT 5SM -SHRA BR OVC014
     FM162200 26014G24KT P6SM OVC012
     FM170000 26014G24KT P6SM OVC008
     FM170800 27012G20KT P6SM OVC015=



000
FTUS41 KILN 161700
TAFLUK
TAF
KLUK 161731Z 1618/1718 26014G24KT P6SM -SHRA OVC016
     FM162100 27014G24KT P6SM OVC012
     FM170000 27012G20KT P6SM OVC012
     FM170600 28010G18KT P6SM OVC018=



000
FTUS41 KILN 161700
TAFCVG
TAF
KCVG 161731Z 1618/1724 26014G24KT P6SM -SHRA SCT007 OVC012
     FM162100 27014G24KT P6SM OVC007
     FM170000 27012G20KT P6SM OVC007
     FM170600 28010G18KT P6SM OVC014
     FM171800 28010KT P6SM BKN022=



000
FTUS41 KILN 161700
TAFILN
TAF
KILN 161731Z 1618/1718 25014G24KT 5SM -SHRA BR SCT006 OVC012
     FM162100 25014G24KT P6SM OVC006
     FM170000 27014G24KT P6SM OVC006
     FM170700 28012G20KT P6SM OVC013=



000
FTUS41 KILN 161700
TAFDAY
TAF
KDAY 161731Z 1618/1718 25014G24KT 5SM -SHRA BR SCT006 OVC012
     FM162100 25014G24KT P6SM OVC006
     FM170000 27014G24KT P6SM OVC006
     FM170600 28012G20KT P6SM OVC013=



000
FTUS41 KILN 161500 AAB
TAFDAY
TAF AMD
KDAY 161526Z 1615/1712 25014G24KT P6SM -SHRA OVC008
     FM162000 25014G24KT P6SM OVC012
     FM170600 25013G20KT P6SM OVC015=



000
FTUS41 KILN 161500 AAB
TAFCMH
TAF AMD
KCMH 161526Z 1615/1712 23012KT P6SM -SHRA OVC012
     FM161700 25014G24KT P6SM -SHRA OVC012
     FM162200 26014G24KT P6SM VCSH OVC012
     FM170600 27013KT P6SM OVC015=



000
FTUS41 KILN 161500 AAB
TAFLCK
TAF AMD
KLCK 161526Z 1615/1712 23012KT P6SM -SHRA OVC012
     FM161700 25014G24KT P6SM -SHRA OVC012
     FM162200 26014G24KT P6SM VCSH OVC012
     FM170600 27013KT P6SM OVC015=



000
FTUS41 KILN 161500 AAA
TAFILN
TAF AMD
KILN 161526Z 1615/1712 25014G24KT P6SM -SHRA OVC012
     FM162000 25014G22KT P6SM OVC012
     FM170600 26012KT P6SM OVC015=



000
FTUS41 KILN 161500 AAB
TAFLUK
TAF AMD
KLUK 161507Z 1615/1712 25014G24KT P6SM -SHRA OVC016
     FM162000 26014G24KT P6SM OVC016
     FM170000 25010G17KT P6SM OVC019
     FM170400 26010KT P6SM OVC019=



000
FTUS41 KILN 161500 AAB
TAFCVG
TAF AMD
KCVG 161507Z 1615/1718 26014G24KT P6SM -SHRA OVC012
     FM162000 27014G24KT P6SM OVC012
     FM170000 27010G17KT P6SM OVC015
     FM170400 28010KT P6SM OVC017
     FM171400 28010KT P6SM BKN025=



000
FTUS41 KILN 161300 AAA
TAFLUK
TAF AMD
KLUK 161336Z 1614/1712 25012G20KT P6SM VCSH OVC016
     FM161500 24012G23KT P6SM OVC016
     FM170000 25010G17KT P6SM OVC019
     FM170400 26010KT P6SM OVC019=



000
FTUS41 KILN 161300 AAA
TAFLCK
TAF AMD
KLCK 161336Z 1614/1712 22008KT P6SM VCSH BKN015 OVC035
      TEMPO 1614/1615 5SM -SHRA BR
     FM161500 23012KT P6SM VCSH OVC012
     FM161700 24014G24KT P6SM VCSH OVC012
     FM170600 27013KT P6SM OVC015=



000
FTUS41 KILN 161300 AAA
TAFILN
TAF AMD
KILN 161336Z 1614/1712 24012KT P6SM VCSH OVC012
     FM161600 24014G22KT P6SM VCSH OVC012
     FM162000 25014G22KT P6SM OVC012
     FM170600 26012KT P6SM OVC015=



000
FTUS41 KILN 161300 AAA
TAFDAY
TAF AMD
KDAY 161336Z 1614/1712 24012KT P6SM -SHRA OVC008
     FM161500 25014G24KT P6SM -SHRA OVC008
     FM161700 25014G24KT P6SM VCSH OVC012
     FM162000 25013G20KT P6SM OVC015=



000
FTUS41 KILN 161300 AAA
TAFCMH
TAF AMD
KCMH 161336Z 1614/1712 22008KT P6SM VCSH BKN015 OVC035
      TEMPO 1614/1615 5SM -SHRA BR
     FM161500 23012KT P6SM VCSH OVC012
     FM161700 24014G24KT P6SM VCSH OVC012
     FM170600 27013KT P6SM OVC015=



000
FTUS41 KILN 161300 AAA
TAFCVG
TAF AMD
KCVG 161336Z 1614/1718 25012G20KT P6SM VCSH OVC012
     FM161500 25012G24KT P6SM OVC012
     FM170000 27010G17KT P6SM OVC015
     FM170400 28010KT P6SM OVC017
     FM171400 28010KT P6SM BKN025=



000
FTUS41 KILN 161100
TAFCMH
TAF
KCMH 161123Z 1612/1712 17007KT P6SM OVC015
      TEMPO 1612/1614 -SHRA
     FM161400 20011KT P6SM VCSH OVC013
     FM161600 24014G24KT P6SM OVC012
     FM170600 27013KT P6SM OVC015=



000
FTUS41 KILN 161100
TAFLUK
TAF
KLUK 161123Z 1612/1712 22007KT P6SM VCSH OVC016
     FM161500 24012G23KT P6SM OVC016
     FM170000 25010G17KT P6SM OVC019
     FM170400 26010KT P6SM OVC019=



000
FTUS41 KILN 161100
TAFCVG
TAF
KCVG 161123Z 1612/1718 22011KT P6SM VCSH OVC012
     FM161500 24012G24KT P6SM OVC012
     FM170000 27010G17KT P6SM OVC015
     FM170400 28010KT P6SM OVC017
     FM171400 28010KT P6SM BKN025=



000
FTUS41 KILN 161100
TAFILN
TAF
KILN 161123Z 1612/1712 19007KT P6SM VCTS OVC014CB
      TEMPO 1612/1613 3SM -SHRA OVC014
     FM161300 20009KT P6SM VCSH OVC014
     FM161600 24014G22KT P6SM OVC011
     FM162000 25014G22KT P6SM OVC013
     FM170600 26012KT P6SM OVC015=



000
FTUS41 KILN 161100
TAFDAY
TAF
KDAY 161123Z 1612/1712 16008KT P6SM -SHRA OVC018
     FM161300 20012KT P6SM VCSH OVC017
     FM161500 24014G24KT P6SM OVC012
     FM162000 25013G20KT P6SM OVC015=



000
FTUS41 KILN 161100
TAFLCK
TAF
KLCK 161123Z 1612/1712 16005KT P6SM OVC015
      TEMPO 1612/1614 -SHRA
     FM161400 20011KT P6SM VCSH OVC013
     FM161600 24013G22KT P6SM OVC012
     FM170600 27012KT P6SM OVC015=



000
FTUS41 KILN 161100 AAB
TAFILN
TAF AMD
KILN 161101Z 1611/1706 17006KT P6SM -SHRA VCTS FEW009CB OVC017
      TEMPO 1611/1613 3SM -SHRA SCT009
     FM161300 19007KT 5SM BR VCSH OVC012
     FM161700 24014G22KT P6SM OVC015
     FM162000 25014G22KT P6SM OVC015=



000
FTUS41 KILN 161000 AAA
TAFLCK
TAF AMD
KLCK 161013Z 1610/1706 16005KT P6SM OVC015
      TEMPO 1611/1614 -SHRA
     FM161400 19011KT 5SM BR OVC012
     FM161600 22012G17KT 5SM BR OVC012
     FM161800 24012G20KT P6SM VCSH OVC015=



000
FTUS41 KILN 161000 AAA
TAFCMH
TAF AMD
KCMH 161012Z 1610/1706 17007KT P6SM BKN015 OVC025
      TEMPO 1611/1614 -SHRA
     FM161400 19011KT 5SM BR VCSH OVC012
     FM161600 22012G18KT 5SM BR OVC012
     FM161800 24014G22KT P6SM OVC015=



000
FTUS41 KILN 161000 AAA
TAFCMH
TAF AMD
KCMH 161012Z 1610/1706 17007KT P6SM BKN015 OVC025
      TEMPO 1611/1614 -SHRA
     FM161400 19011KT 5SM BR VCSH OVC012
     FM161600 22012G18KT 5SM BR OVC012
     FM161800 24014G22KT P6SM OVC015=



000
FTUS41 KILN 161000 AAB
TAFLUK
TAF AMD
KLUK 161009Z 1610/1706 20007KT P6SM -SHRA VCTS SCT009CB OVC017
      TEMPO 1610/1612 1SM SHRA BKN009
     FM161200 22007KT P6SM OVC017
     FM161300 22008KT P6SM VCSH OVC015
     FM161500 24012G20KT P6SM OVC020
     FM170000 24009G15KT P6SM OVC020=



000
FTUS41 KILN 161000 AAB
TAFLUK
TAF AMD
KLUK 161009Z 1610/1706 20007KT P6SM -SHRA VCTS SCT009CB OVC017
      TEMPO 1610/1612 1SM SHRA BKN009
     FM161200 22007KT P6SM OVC017
     FM161300 22008KT P6SM VCSH OVC015
     FM161500 24012G20KT P6SM OVC020
     FM170000 24009G15KT P6SM OVC020=



000
FTUS41 KILN 160900 AAA
TAFILN
TAF AMD
KILN 160942Z 1610/1706 17006KT P6SM -SHRA OVC017
      TEMPO 1610/1611 3SM -SHRA
     FM161100 19007KT 5SM BR VCSH OVC012
     FM161700 24014G22KT P6SM OVC015
     FM162000 25014G22KT P6SM OVC015=



000
FTUS41 KILN 160900 AAB
TAFCVG
TAF AMD
KCVG 160934Z 1610/1712 17008KT P6SM -SHRA VCTS SCT007CB OVC014
      TEMPO 1610/1611 1SM SHRA BKN007
     FM161100 21009KT P6SM OVC015
      TEMPO 1611/1613 -SHRA
     FM161300 23011KT P6SM VCSH OVC012
     FM161500 25012G20KT P6SM OVC015
     FM170000 27010G17KT P6SM OVC015=



000
FTUS41 KILN 160800 AAA
TAFDAY
TAF AMD
KDAY 160820Z 1608/1706 16008KT P6SM -SHRA OVC017
      TEMPO 1608/1611 2SM SHRA
     FM161300 20012KT 5SM BR VCSH OVC010
     FM161600 24014G22KT P6SM OVC012
     FM162000 25014G22KT P6SM OVC015=



000
FTUS41 KILN 160800 AAA
TAFILN
TAF AMD
KILN 160818Z 1608/1706 17006KT P6SM -SHRA VCTS SCT009CB OVC017
      TEMPO 1608/1611 1SM SHRA OVC009
     FM161100 19007KT 5SM BR VCSH OVC012
     FM161700 24014G22KT P6SM VCSH OVC015
     FM162000 25014G22KT P6SM OVC015=



000
FTUS41 KILN 160800 AAA
TAFLUK
TAF AMD
KLUK 160813Z 1608/1706 00000KT P6SM -SHRA VCTS SCT009CB OVC017
      TEMPO 1608/1611 1SM SHRA BKN009
     FM161100 20006KT P6SM OVC017
      TEMPO 1611/1613 -SHRA
     FM161300 22008KT P6SM VCSH OVC015
     FM161500 24012G20KT P6SM OVC020
     FM170000 24009G15KT P6SM OVC020=



000
FTUS41 KILN 160800 AAA
TAFCVG
TAF AMD
KCVG 160808Z 1608/1712 17008KT P6SM -SHRA VCTS SCT007CB OVC016
      TEMPO 1608/1610 1SM SHRA BKN007
     FM161000 21009KT P6SM OVC015
      TEMPO 1610/1613 -SHRA
     FM161300 23011KT P6SM VCSH OVC012
     FM161500 25012G20KT P6SM OVC015
     FM170000 27010G17KT P6SM OVC015=



000
FTUS41 KILN 160500
TAFILN
TAF
KILN 160535Z 1606/1706 17006KT P6SM OVC017
     FM160700 17007KT P6SM OVC015
      TEMPO 1608/1612 -SHRA
     FM161300 22012KT 5SM BR OVC012
     FM161700 24014G22KT P6SM VCSH OVC015
     FM162000 25014G22KT P6SM OVC015=



000
FTUS41 KILN 160500
TAFDAY
TAF
KDAY 160535Z 1606/1706 16008KT P6SM OVC017
     FM160700 18011KT P6SM OVC015
      TEMPO 1608/1612 -SHRA
     FM161300 20012KT 5SM BR OVC010
     FM161600 24014G22KT 5SM BR VCSH OVC012
     FM162000 25014G22KT P6SM OVC015=



000
FTUS41 KILN 160500
TAFCVG
TAF
KCVG 160535Z 1606/1712 17008KT P6SM OVC016
      TEMPO 1607/1611 -SHRA
     FM161100 21009KT P6SM OVC015
      TEMPO 1611/1613 -SHRA
     FM161300 23011KT P6SM OVC012
     FM161500 25012G20KT P6SM OVC015
     FM170000 27010G17KT P6SM OVC015=



000
FTUS41 KILN 160500
TAFLUK
TAF
KLUK 160535Z 1606/1706 00000KT P6SM OVC025
     FM160700 18004KT P6SM OVC018
      TEMPO 1607/1611 -SHRA
     FM161100 20006KT P6SM OVC017
      TEMPO 1611/1613 -SHRA
     FM161300 22008KT P6SM OVC015
     FM161500 24012G20KT P6SM OVC020
     FM170000 24009G15KT P6SM OVC020=



000
FTUS41 KILN 160500
TAFCMH
TAF
KCMH 160535Z 1606/1706 15006KT P6SM BKN025 OVC040
     FM160800 17007KT P6SM VCSH BKN015 OVC025
     FM161300 19011KT 5SM BR VCSH OVC012
     FM161600 22012G18KT 5SM BR OVC012
     FM161800 24014G22KT P6SM OVC015=



000
FTUS41 KILN 160500
TAFLCK
TAF
KLCK 160535Z 1606/1706 15004KT P6SM BKN025 OVC040
     FM160800 16005KT P6SM VCSH BKN015 OVC025
     FM161300 19011KT 5SM BR OVC012
     FM161600 22012G17KT 5SM BR OVC012
     FM161800 24012G20KT P6SM VCSH OVC015=



000
FTUS41 KILN 160300 AAA
TAFLCK
TAF AMD
KLCK 160321Z 1603/1624 13006KT P6SM BKN040 OVC080
     FM160400 16006KT P6SM BKN025 OVC040
      TEMPO 1604/1606 -SHRA
     FM160800 17009KT P6SM VCSH BKN015 OVC025
     FM161300 20011KT 5SM BR OVC012
     FM161800 23012G20KT P6SM VCSH OVC015=



000
FTUS41 KILN 160300 AAA
TAFCMH
TAF AMD
KCMH 160321Z 1603/1624 14006KT P6SM BKN040 OVC080
     FM160400 15007KT P6SM BKN025 OVC040
      TEMPO 1604/1606 -SHRA
     FM160800 16009KT P6SM VCSH BKN015 OVC025
     FM161300 20011KT 5SM BR OVC012
     FM161800 24014G22KT P6SM VCSH OVC015=



000
FTUS41 KILN 160200 AAA
TAFILN
TAF AMD
KILN 160255Z 1603/1624 16009KT P6SM OVC025
      TEMPO 1603/1604 -SHRA
     FM160700 18011KT P6SM OVC015
      TEMPO 1608/1611 -SHRA
     FM161100 22012KT 5SM BR OVC012
     FM161600 23014G22KT P6SM VCSH OVC015
     FM162000 25014G22KT P6SM OVC015=



000
FTUS41 KILN 160200 AAA
TAFDAY
TAF AMD
KDAY 160218Z 1602/1624 15009KT P6SM VCSH BKN035 OVC080
     FM160300 16011KT P6SM OVC022
      TEMPO 1603/1604 -SHRA
     FM160700 18011KT P6SM OVC015
      TEMPO 1608/1611 -SHRA
     FM161100 21012KT 5SM BR OVC010
     FM161600 24014G22KT 5SM BR VCSH OVC012
     FM162100 26014G22KT P6SM OVC015=



000
FTUS41 KILN 160200 AAA
TAFCVG
TAF AMD
KCVG 160215Z 1602/1706 16010KT P6SM OVC022
      TEMPO 1602/1603 -SHRA
     FM160600 18010KT P6SM OVC015
      TEMPO 1607/1610 -SHRA
     FM161100 23011KT P6SM OVC012
     FM161500 24012G20KT P6SM VCSH OVC015
     FM161900 25012G20KT P6SM OVC015
     FM170000 27010KT P6SM OVC015=



000
FTUS41 KILN 160200 AAA
TAFLUK
TAF AMD
KLUK 160215Z 1602/1624 17007KT P6SM OVC025
      TEMPO 1602/1603 -SHRA
     FM160700 20008KT P6SM OVC018
      TEMPO 1607/1610 -SHRA
     FM161100 23010KT P6SM OVC015
     FM161500 23012G20KT P6SM VCSH OVC020
     FM162000 24012G20KT P6SM OVC020=



000
FTUS41 KILN 152300
TAFILN
TAF
KILN 152339Z 1600/1624 15007KT P6SM VCSH BKN035 OVC080
     FM160500 16009KT P6SM VCSH OVC025
     FM160800 18011KT P6SM OVC015
      TEMPO 1608/1611 -SHRA
     FM161100 22012KT 5SM BR OVC012
     FM161600 23014G22KT P6SM VCSH OVC015
     FM162000 25014G22KT P6SM OVC015=



000
FTUS41 KILN 152300
TAFDAY
TAF
KDAY 152339Z 1600/1624 15009KT P6SM VCSH BKN035 OVC080
     FM160500 16011KT P6SM VCSH OVC022
     FM160800 18011KT P6SM OVC015
      TEMPO 1608/1611 -SHRA
     FM161100 21012KT 5SM BR OVC010
     FM161600 24014G22KT 5SM BR VCSH OVC012
     FM162100 26014G22KT P6SM OVC015=



000
FTUS41 KILN 152300
TAFCMH
TAF
KCMH 152339Z 1600/1624 15005KT P6SM OVC200
     FM160300 15006KT P6SM BKN040 OVC080
     FM160800 16009KT P6SM VCSH BKN015 OVC025
     FM161300 20011KT 5SM BR OVC012
     FM161800 24014G22KT P6SM VCSH OVC015=



000
FTUS41 KILN 152300
TAFLUK
TAF
KLUK 152339Z 1600/1624 15005KT P6SM VCSH BKN040 OVC080
     FM160400 17007KT P6SM VCSH OVC025
     FM160700 20008KT P6SM OVC018
      TEMPO 1607/1610 -SHRA
     FM161100 23010KT P6SM OVC015
     FM161500 23012G20KT P6SM VCSH OVC020
     FM162000 24012G20KT P6SM OVC020=



000
FTUS41 KILN 152300
TAFLCK
TAF
KLCK 152339Z 1600/1624 15005KT P6SM OVC200
     FM160300 15006KT P6SM BKN040 OVC080
     FM160800 17009KT P6SM VCSH BKN015 OVC025
     FM161300 20011KT 5SM BR OVC012
     FM161800 23012G20KT P6SM VCSH OVC015=



000
FTUS41 KILN 152300
TAFCVG
TAF
KCVG 152339Z 1600/1706 16010KT P6SM VCSH BKN035 OVC080
     FM160400 16010KT P6SM VCSH OVC022
     FM160700 19010KT P6SM OVC015
      TEMPO 1607/1610 -SHRA
     FM161100 23011KT P6SM OVC012
     FM161500 24012G20KT P6SM VCSH OVC015
     FM161900 25012G20KT P6SM OVC015
     FM170000 27010KT P6SM OVC015=



000
FTUS41 KILN 152000 AAB
TAFCVG
TAF AMD
KCVG 152053Z 1521/1624 16010KT P6SM SCT025 BKN200
     FM152300 15008KT P6SM -RA SCT015 OVC050
     FM160400 17008KT P6SM VCSH SCT015 OVC035
     FM160600 18008KT P6SM -RA SCT009 OVC025
     FM161000 21010KT P6SM VCSH SCT009 OVC015
      TEMPO 1611/1613 5SM BR BKN009
     FM161500 22012G20KT P6SM -SHRA OVC015
     FM162200 26012G20KT P6SM VCSH OVC015=



000
FTUS41 KILN 151900 AAA
TAFDAY
TAF AMD
KDAY 151915Z 1519/1618 16012KT P6SM SCT022 BKN250
      TEMPO 1519/1520 BKN022
     FM160000 15010KT P6SM -RA SCT022 OVC060
     FM160500 17010KT P6SM VCSH BKN015 OVC035
     FM160900 19007KT 4SM -SHRA BR SCT006 OVC012
      TEMPO 1610/1613 2SM BR BKN006
     FM161500 22012G20KT 5SM -SHRA BR OVC015=



000
FTUS41 KILN 151900 AAA
TAFLUK
TAF AMD
KLUK 151915Z 1519/1618 15009KT P6SM SCT025 BKN200
      TEMPO 1519/1520 BKN025
     FM152300 15005KT P6SM -RA SCT015 OVC050
     FM160400 18006KT P6SM VCSH SCT015 OVC035
     FM160600 20007KT P6SM -RA SCT009 OVC025
     FM161000 21009KT P6SM VCSH SCT009 OVC015
      TEMPO 1611/1613 5SM BR
     FM161500 23012G20KT P6SM -SHRA OVC018=



000
FTUS41 KILN 151900 AAA
TAFCVG
TAF AMD
KCVG 151914Z 1519/1624 16010KT P6SM SCT025 BKN200
     FM152300 15008KT P6SM -RA SCT015 OVC050
     FM160400 17008KT P6SM VCSH SCT015 OVC035
     FM160600 18008KT P6SM -RA SCT009 OVC025
     FM161000 21010KT P6SM VCSH SCT009 OVC015
      TEMPO 1611/1613 5SM BR BKN009
     FM161500 22012G20KT P6SM -SHRA OVC015
     FM162200 26012G20KT P6SM VCSH OVC015=



000
FTUS41 KILN 151800 AAA
TAFILN
TAF AMD
KILN 151845Z 1519/1618 15010KT P6SM SCT022 BKN250
     FM160100 15010KT P6SM -RA SCT022 OVC060
     FM160600 17010KT P6SM VCSH SCT015 OVC035
     FM160900 19011KT 4SM BR VCSH BKN015 OVC025
     FM161100 20012KT 4SM -SHRA BR OVC012
      TEMPO 1611/1613 BKN007
     FM161500 22013G21KT 5SM -SHRA BR OVC015=



000
FTUS41 KILN 151700 RRA
TAFCVG
TAF
KCVG 151742Z 1518/1624 14010KT P6SM OVC025
     FM152300 15008KT P6SM -RA SCT015 OVC050
     FM160400 17008KT P6SM VCSH SCT015 OVC035
     FM160600 18008KT P6SM -RA SCT009 OVC025
     FM161000 21010KT P6SM VCSH SCT009 OVC015
      TEMPO 1611/1613 5SM BR BKN009
     FM161500 22012G20KT P6SM -SHRA OVC015
     FM162200 26012G20KT P6SM VCSH OVC015=



000
FTUS41 KILN 151700 RRA
TAFDAY
TAF
KDAY 151742Z 1518/1618 15012KT P6SM SCT022 BKN250
      TEMPO 1518/1522 BKN022
     FM160000 15010KT P6SM -RA SCT022 OVC060
     FM160500 17010KT P6SM VCSH BKN015 OVC035
     FM160900 19007KT 4SM -SHRA BR SCT006 OVC012
      TEMPO 1610/1613 2SM BR BKN006
     FM161500 22012G20KT 5SM -SHRA BR OVC015=



000
FTUS41 KILN 151700 RRA
TAFCMH
TAF
KCMH 151742Z 1518/1618 14008KT P6SM FEW035 BKN200
     FM160000 13006KT P6SM BKN025 OVC200
     FM160300 14008KT P6SM -RA SCT015 OVC060
     FM160700 17010KT P6SM VCSH SCT015 OVC035
     FM160900 18011KT P6SM VCSH BKN015 OVC025
     FM161400 20013KT 4SM -SHRA BR OVC012
      TEMPO 1614/1616 BKN009=



000
FTUS41 KILN 151700 RRA
TAFLCK
TAF
KLCK 151742Z 1518/1618 15008KT P6SM FEW035 BKN200
     FM160000 13006KT P6SM BKN025 OVC200
     FM160300 14008KT P6SM -RA SCT015 OVC060
     FM160700 17010KT P6SM VCSH SCT015 OVC035
     FM160900 18011KT P6SM VCSH BKN015 OVC025
     FM161400 20013KT 4SM -SHRA BR OVC012
      TEMPO 1614/1616 BKN009=



000
FTUS41 KILN 151700 RRA
TAFLUK
TAF
KLUK 151742Z 1518/1618 15009KT P6SM BKN025
     FM152300 15005KT P6SM -RA SCT015 OVC050
     FM160400 18006KT P6SM VCSH SCT015 OVC035
     FM160600 20007KT P6SM -RA SCT009 OVC025
     FM161000 21009KT P6SM VCSH SCT009 OVC015
      TEMPO 1611/1613 5SM BR
     FM161500 23012G20KT P6SM -SHRA OVC018=



000
FTUS41 KILN 151700 RRA
TAFILN
TAF
KILN 151742Z 1518/1618 14010KT P6SM SCT022 BKN250
      TEMPO 1518/1522 BKN022
     FM160100 15010KT P6SM -RA SCT022 OVC060
     FM160600 17010KT P6SM VCSH SCT015 OVC035
     FM160900 19011KT 4SM BR VCSH BKN015 OVC025
     FM161100 20012KT 4SM -SHRA BR OVC012
      TEMPO 1611/1613 BKN007
     FM161500 22013G21KT 5SM -SHRA BR OVC015=



000
FTUS41 KILN 151500 AAA
TAFCVG
TAF AMD
KCVG 151501Z 1515/1618 14012KT P6SM OVC015
     FM151900 15009KT P6SM SCT025 OVC250
     FM152300 15008KT P6SM -RA SCT025 OVC060
      TEMPO 1600/1604 BKN025
     FM160400 17007KT P6SM VCSH OVC020
     FM160700 17008KT 5SM BR VCSH OVC011=



000
FTUS41 KILN 151400 AAB
TAFCMH
TAF AMD
KCMH 151440Z 1515/1612 VRB03KT 5SM BR OVC035
     FM151500 15004KT P6SM OVC025
     FM151900 15008KT P6SM SCT030 OVC250
     FM160300 15005KT P6SM -RA SCT025 OVC080
      TEMPO 1604/1608 BKN025
     FM160800 15007KT 5SM BR VCSH OVC020=



000
FTUS41 KILN 151300 AAA
TAFLUK
TAF AMD
KLUK 151312Z 1513/1612 15008KT P6SM OVC025
     FM151800 15009KT P6SM SCT025 OVC250
     FM152300 15003KT P6SM -RA SCT025 OVC060
      TEMPO 1600/1604 BKN025
     FM160400 17003KT P6SM VCSH OVC022
     FM160700 17004KT 5SM BR VCSH OVC015=



000
FTUS41 KILN 151300 AAA
TAFLCK
TAF AMD
KLCK 151304Z 1513/1612 00000KT 4SM BR OVC035
     FM151500 15004KT P6SM OVC025
     FM151900 14007KT P6SM SCT030 OVC250
     FM160300 14005KT P6SM -RA SCT025 OVC080
      TEMPO 1604/1608 BKN025
     FM160800 14007KT 5SM BR VCSH OVC020=



000
FTUS41 KILN 151300 AAA
TAFCMH
TAF AMD
KCMH 151303Z 1513/1612 VRB03KT 5SM BR OVC035
      TEMPO 1514/1515 2SM BR
     FM151500 15004KT P6SM OVC025
     FM151900 15008KT P6SM SCT030 OVC250
     FM160300 15005KT P6SM -RA SCT025 OVC080
      TEMPO 1604/1608 BKN025
     FM160800 15007KT 5SM BR VCSH OVC020=



000
FTUS41 KILN 151100 RRA
TAFCMH
TAF
KCMH 151155Z 1512/1612 VRB04KT 5SM BR OVC035
     FM151300 15004KT P6SM OVC035
     FM151500 15004KT P6SM OVC025
     FM151900 15008KT P6SM SCT030 OVC250
     FM160300 15005KT P6SM -RA SCT025 OVC080
      TEMPO 1604/1608 BKN025
     FM160800 15007KT 5SM BR VCSH OVC020=



000
FTUS41 KILN 151100 RRA
TAFDAY
TAF
KDAY 151155Z 1512/1612 17006KT 4SM BR BKN050
     FM151300 16007KT 5SM BR OVC025
     FM151600 15009KT 6SM HZ OVC025
     FM152200 15010KT P6SM SCT025 OVC250
     FM160000 15009KT P6SM -RA SCT025 OVC080
      TEMPO 1601/1603 BKN025
     FM160300 15010KT P6SM VCSH OVC020
     FM160700 15011KT 5SM BR VCSH OVC012=



000
FTUS41 KILN 151100 RRA
TAFCVG
TAF
KCVG 151155Z 1512/1618 15004KT P6SM OVC019
     FM151600 15009KT P6SM BKN023
     FM151800 15009KT P6SM SCT025 OVC250
     FM152300 15008KT P6SM -RA SCT025 OVC060
      TEMPO 1600/1604 BKN025
     FM160400 17007KT P6SM VCSH OVC020
     FM160700 17008KT 5SM BR VCSH OVC011=



000
FTUS41 KILN 151100 RRA
TAFLCK
TAF
KLCK 151155Z 1512/1612 00000KT 4SM BR OVC035
     FM151300 14004KT P6SM OVC035
     FM151500 15004KT P6SM OVC025
     FM151900 14007KT P6SM SCT030 OVC250
     FM160300 14005KT P6SM -RA SCT025 OVC080
      TEMPO 1604/1608 BKN025
     FM160800 14007KT 5SM BR VCSH OVC020=



000
FTUS41 KILN 151100 RRA
TAFLUK
TAF
KLUK 151155Z 1512/1612 00000KT P6SM BKN020
     FM151300 00000KT P6SM OVC019
     FM151400 15006KT P6SM OVC025
     FM151700 15009KT P6SM BKN025
     FM151900 15009KT P6SM SCT025 OVC250
     FM152300 15003KT P6SM -RA SCT025 OVC060
      TEMPO 1600/1604 BKN025
     FM160400 17003KT P6SM VCSH OVC022
     FM160700 17004KT 5SM BR VCSH OVC015=



000
FTUS41 KILN 151100 RRA
TAFILN
TAF
KILN 151155Z 1512/1612 19003KT 4SM BR BKN025
     FM151900 14009KT P6SM BKN025
     FM152100 14009KT P6SM SCT025 OVC250
     FM160000 14007KT P6SM -RA SCT025 OVC060
      TEMPO 1602/1604 BKN025
     FM160400 15006KT P6SM VCSH OVC020
     FM160800 15007KT 5SM BR VCSH OVC012=



    US Dept of Commerce
    National Oceanic and Atmospheric Administration
    National Weather Service
    1325 East West Highway
    Silver Spring, MD 20910
    Page Author: NWS Internet Services Team
Disclaimer
Information Quality
Credits
Glossary
Privacy Policy
Freedom of Information Act (FOIA)
About Us
Career Opportunities